Nearby METAR Reports

 

KBJC - Broomfield/Jeffc, Colorado, USA
Distance from station: NNW 11mi, 17km
Updated: 10/21/2017 12:45pm
Few Clouds
Few Clouds
 Wind from WSW
Wind: WSW 18 mph , 30 km/h, Gust: 26 mph , 43 km/h
Temperature: 50°F , 10°C
Wind Chill: 44°F , 7°C
Dew Point: 12°F , -11°C
Humidity: 22%
Barometer: 30.07 inHg , 1018.3 hPa
Clouds: Few Clouds
Visibility: 30 miles , 48 km
Cloud details: Few Clouds 5000 ft
2017/10/21 18:45 KBJC 211845Z 25016G23KT 30SM FEW050 10/M11 A3007
KBKF - Buckley Angb/Den, Colorado, USA
Distance from station: E 16mi, 25km
Updated: 10/21/2017 12:58pm
Few Clouds
Few Clouds
 Wind from WNW
Wind: WNW 24 mph , 39 km/h, Gust: 32 mph , 52 km/h
Temperature: 52°F , 11°C
Dew Point: 7°F , -14°C
Humidity: 16%
Barometer: 30.04 inHg , 1017.3 hPa
Clouds: Few Clouds
Visibility: 10 miles , 16 km
Cloud details: Few Clouds 9000 ft
Few Clouds 15000 ft
2017/10/21 18:58 KBKF 211858Z 29021G28KT 10SM FEW090 FEW150 11/M14 A3004 RMK AO2A PK WND 28030/04 SLP130 T01051143
 
KAPA - Denver/Arapahoe, Colorado, USA
Distance from station: SE 16mi, 26km
Updated: 10/21/2017 12:53pm
Few Clouds
Few Clouds
 Wind from NW
Wind: NW 21 mph , 33 km/h, Gust: 30 mph , 48 km/h
Temperature: 50°F , 10°C
Wind Chill: 43°F , 6°C
Dew Point: 7°F , -14°C
Humidity: 17%
Barometer: 30.04 inHg , 1017.3 hPa
Clouds: Few Clouds
Visibility: 10 miles , 16 km
Cloud details: Few Clouds 5500 ft
Few Clouds 10000 ft
Few Clouds 20000 ft
2017/10/21 18:53 KAPA 211853Z 31018G26KT 10SM FEW055 FEW100 FEW200 10/M14 A3004 RMK AO2 SLP137 SHSN OMTNS DSNT W-NW T01001139 $
KEIK - Erie Muni, Colorado, USA
Distance from station: N 18mi, 29km
Updated: 10/21/2017 1:18pm
Clear
Clear
 Wind from W
Wind: W 15 mph , 24 km/h, Gust: 25 mph , 41 km/h
Temperature: 54°F , 12°C
Dew Point: 7°F , -14°C
Humidity: 15%
Barometer: 30.09 inHg , 1019 hPa
Clouds: Clear
Visibility: 10 miles , 16 km
2017/10/21 19:18 KEIK 211918Z AUTO 27013G22KT 10SM CLR 12/M14 A3009 RMK AO2 T01151136
 
KBDU - Boulder Muni, Colorado, USA
Distance from station: NNW 22mi, 35km
Updated: 10/21/2017 1:12pm
Clear
Clear
 Wind from W
Wind: W 23 mph , 37 km/h, Gust: 35 mph , 56 km/h
Temperature: 50°F , 10°C
Wind Chill: 43°F , 6°C
Dew Point: 10°F , -12°C
Humidity: 20%
Barometer: 30.04 inHg , 1017.3 hPa
Clouds: Clear
Visibility: 10 miles , 16 km
2017/10/21 19:12 KBDU 211912Z AUTO 26020G30KT 10SM CLR 10/M12 A3004 RMK AO2
KDEN - Denver (dia), Colorado, USA
Distance from station: ENE 22mi, 35km
Updated: 10/21/2017 12:53pm
Few Clouds
Few Clouds
 Wind from W
Wind: W 21 mph , 33 km/h, Gust: 31 mph , 50 km/h
Temperature: 52°F , 11°C
Dew Point: 10°F , -12°C
Humidity: 19%
Barometer: 30.02 inHg , 1016.6 hPa
Clouds: Few Clouds
Visibility: 10 miles , 16 km
Cloud details: Few Clouds 10000 ft
2017/10/21 18:53 KDEN 211853Z 26018G27KT 10SM FEW100 11/M12 A3002 RMK AO2 PK WND 28032/1759 SLP131 T01061117
 
KFTG - Denver F. Range, Colorado, USA
Distance from station: E 26mi, 42km
Updated: 10/21/2017 12:50pm
Few Clouds
Few Clouds
 Wind from W
Wind: W 23 mph , 37 km/h, Gust: 35 mph , 56 km/h
Temperature: 54°F , 12°C
Dew Point: 12°F , -11°C
Humidity: 19%
Barometer: 30.05 inHg , 1017.6 hPa
Clouds: Few Clouds
Visibility: 10 miles , 16 km
Cloud details: Few Clouds 8000 ft
2017/10/21 18:50 KFTG 211850Z 27020G30KT 10SM FEW080 12/M11 A3005
KLMO - Longmont/Vbrand, Colorado, USA
Distance from station: NNW 29mi, 47km
Updated: 10/21/2017 1:15pm
Mostly cloudy
Mostly cloudy
 Wind from WNW
Wind: WNW 5 mph , 7 km/h
Temperature: 54°F , 12°C
Dew Point: 9°F , -13°C
Humidity: 16%
Barometer: 30.05 inHg , 1017.6 hPa
Clouds: Mostly cloudy
Visibility: 10 miles , 16 km
Cloud details: Mostly cloudy 11000 ft
2017/10/21 19:15 KLMO 211915Z AUTO 30004KT 10SM BKN110 12/M13 A3005 RMK AO2 T01151129
 
K0CO - Berthoud Pass, Colorado, USA
Distance from station: W 39mi, 62km
Updated: 10/21/2017 1:12pm
Mostly cloudy
Mostly cloudy
 Wind from NW
Wind: NW 39 mph , 63 km/h, Gust: 56 mph , 91 km/h
Temperature: 9°F , -13°C
Wind Chill: -16°F , -27°C
Dew Point: -0°F , -18°C
Humidity: 66%
Barometer: 30.05 inHg , 1017.6 hPa
Clouds: Mostly cloudy
Cloud details: Partly cloudy 500 ft
Partly cloudy 1000 ft
Mostly cloudy 2700 ft
2017/10/21 19:12 K0CO 211912Z AUTO 31034G49KT SCT005 SCT010 BKN027 M13/M18 A3005 RMK AO2 PWINO
KMNH - Monument/Elbert, Colorado, USA
Distance from station: SSE 43mi, 68km
Updated: 10/21/2017 1:11pm
Clear
Clear
 Wind from NNW
Wind: NNW 9 mph , 15 km/h, Gust: 17 mph , 28 km/h
Temperature: 43°F , 6°C
Wind Chill: 38°F , 3°C
Dew Point: 7°F , -14°C
Humidity: 22%
Barometer: 30.06 inHg , 1017.9 hPa
Clouds: Clear
Visibility: 10 miles , 16 km
2017/10/21 19:11 KMNH 211911Z AUTO 34008G15KT 10SM CLR 06/M14 A3006 RMK AO2
 
KFNL - Ft Collins/Lovel, Colorado, USA
Distance from station: N 48mi, 78km
Updated: 10/21/2017 12:56pm
Clear
Clear
 Wind from NW
Wind: NW 21 mph , 33 km/h, Gust: 31 mph , 50 km/h
Temperature: 52°F , 11°C
Dew Point: 12°F , -11°C
Humidity: 20%
Barometer: 30.05 inHg , 1017.6 hPa
Clouds: Clear
Visibility: 10 miles , 16 km
2017/10/21 18:56 KFNL 211856Z AUTO 31018G27KT 10SM CLR 11/M11 A3005 RMK AO2 PK WND 30033/1806 SLP147 T01061106